Time;durP1;ratioP1;P1;durP2;ratioP2;P2;SDS_P1;SDS_P2;PMS_P1;PMS_P2;Temp;Humidity;BMP_temperature;BMP_pressure;BME280_temperature;BME280_humidity;BME280_pressure;Samples;Min_cycle;Max_cycle;Signal;HPM_P1;HPM_P2
2022/12/17 13:10:45;;;;;;;16.33;9.20;;;;;;;;;;12704681;23;20080;-78
2022/12/17 13:15:59;;;;;;;10.90;7.22;;;;;;;;;;12678949;23;20043;-78
2022/12/17 13:21:03;;;;;;;11.70;7.45;;;;;;;;;;12686539;23;20307;-79
2022/12/17 13:26:25;;;;;;;16.38;11.90;;;;;;;;;;12682930;23;20014;-79
2022/12/17 13:31:28;;;;;;;8.18;6.63;;;;;;;;;;12684649;23;20017;-78
2022/12/17 13:36:32;;;;;;;10.15;7.25;;;;;;;;;;12685524;23;20033;-78
2022/12/17 13:41:35;;;;;;;11.05;7.97;;;;;;;;;;12687669;23;20074;-78
2022/12/17 13:46:41;;;;;;;15.75;9.82;;;;;;;;;;12715065;23;20002;-78
2022/12/17 13:51:42;;;;;;;12.27;8.80;;;;;;;;;;12690958;23;20005;-80
2022/12/17 13:56:43;;;;;;;10.02;7.85;;;;;;;;;;12690498;23;20001;-78
2022/12/17 14:01:45;;;;;;;10.93;8.00;;;;;;;;;;12714805;23;20049;-79
2022/12/17 14:06:46;;;;;;;12.20;8.15;;;;;;;;;;12717625;23;19998;-79
2022/12/17 14:17:14;;;;;;;9.85;7.25;;;;;;;;;;12717942;23;19901;-78
2022/12/17 14:22:22;;;;;;;12.75;8.80;;;;;;;;;;12717338;23;19997;-78
2022/12/17 14:27:25;;;;;;;10.10;7.18;;;;;;;;;;12721540;23;20021;-78
2022/12/17 14:32:32;;;;;;;10.70;7.53;;;;;;;;;;12716786;23;20017;-78
2022/12/17 14:37:33;;;;;;;10.20;7.60;;;;;;;;;;12717810;23;20002;-78
2022/12/17 14:42:34;;;;;;;;;;;;;;;;;;12688268;23;20017;-79
2022/12/17 14:47:36;;;;;;;11.75;7.90;;;;;;;;;;12715192;23;19901;-79
2022/12/17 14:52:38;;;;;;;10.15;8.30;;;;;;;;;;12687409;23;20006;-79
2022/12/17 14:57:39;;;;;;;9.93;7.10;;;;;;;;;;12688532;23;20105;-78
2022/12/17 15:02:41;;;;;;;9.88;7.68;;;;;;;;;;12687113;23;20010;-79
2022/12/17 15:07:42;;;;;;;13.13;8.70;;;;;;;;;;12688744;23;20089;-78
2022/12/17 15:12:43;;;;;;;13.82;9.57;;;;;;;;;;12713265;23;20009;-80
2022/12/17 15:17:44;;;;;;;;;;;;;;;;;;12692397;23;20005;-79
2022/12/17 15:22:46;;;;;;;14.27;9.40;;;;;;;;;;12711601;23;19904;-80
2022/12/17 15:27:47;;;;;;;10.88;8.13;;;;;;;;;;12712148;23;19986;-80
2022/12/17 15:32:48;;;;;;;9.75;7.72;;;;;;;;;;12728194;23;20022;-79
2022/12/17 15:37:49;;;;;;;11.93;9.27;;;;;;;;;;12696030;23;20002;-81
2022/12/17 15:48:10;;;;;;;12.15;7.85;;;;;;;;;;12724210;23;20029;-79
2022/12/17 15:53:12;;;;;;;13.18;8.68;;;;;;;;;;12700924;23;20006;-79
2022/12/17 15:58:13;;;;;;;11.07;8.10;;;;;;;;;;12724774;23;20005;-78
2022/12/17 16:03:14;;;;;;;10.25;8.30;;;;;;;;;;12671847;23;20010;-81
2022/12/17 16:08:15;;;;;;;10.27;7.78;;;;;;;;;;12665726;23;20053;-81
2022/12/17 16:13:16;;;;;;;;;;;;;;;;;;12690923;23;20013;-82
2022/12/17 16:18:17;;;;;;;11.32;8.55;;;;;;;;;;12665311;23;19953;-82
2022/12/17 16:23:19;;;;;;;11.15;8.60;;;;;;;;;;12690522;23;20002;-82
2022/12/17 16:28:20;;;;;;;12.02;9.30;;;;;;;;;;12662704;23;20009;-82
2022/12/17 16:33:21;;;;;;;10.68;8.18;;;;;;;;;;12663544;23;20049;-83
2022/12/17 16:38:22;;;;;;;11.82;9.63;;;;;;;;;;12667630;23;20017;-81
2022/12/17 16:43:27;;;;;;;20.02;15.20;;;;;;;;;;12675648;23;20017;-83
2022/12/17 16:48:29;;;;;;;21.88;16.15;;;;;;;;;;12668070;23;20006;-80
2022/12/17 16:53:30;;;;;;;23.05;16.38;;;;;;;;;;12664450;23;20379;-83
2022/12/17 16:58:31;;;;;;;19.05;14.20;;;;;;;;;;12665390;23;20006;-80
2022/12/17 17:03:32;;;;;;;15.57;13.20;;;;;;;;;;12665619;23;20009;-81
2022/12/17 17:08:33;;;;;;;;;;;;;;;;;;12681717;23;20002;-81
2022/12/17 17:13:34;;;;;;;16.88;13.85;;;;;;;;;;12695515;23;19901;-81
2022/12/17 17:18:36;;;;;;;16.42;12.98;;;;;;;;;;12664335;23;20123;-81
2022/12/17 17:23:37;;;;;;;18.70;14.63;;;;;;;;;;12665412;23;20013;-82
2022/12/17 17:28:38;;;;;;;;;;;;;;;;;;12689357;23;20085;-80
2022/12/17 17:33:42;;;;;;;16.65;13.38;;;;;;;;;;12693221;23;19955;-80
2022/12/17 17:38:43;;;;;;;16.63;12.75;;;;;;;;;;12676012;23;20006;-80
2022/12/17 17:43:44;;;;;;;15.98;13.00;;;;;;;;;;12672716;23;20021;-81
2022/12/17 17:48:45;;;;;;;;;;;;;;;;;;12692303;23;19998;-82
2022/12/17 17:53:47;;;;;;;24.48;19.55;;;;;;;;;;12690444;23;19905;-81
2022/12/17 17:58:49;;;;;;;24.25;17.92;;;;;;;;;;12664506;23;20057;-82
2022/12/17 18:03:51;;;;;;;22.42;18.00;;;;;;;;;;12691205;23;20038;-81
2022/12/17 18:08:52;;;;;;;20.20;16.10;;;;;;;;;;12693285;23;20002;-80
2022/12/17 18:13:54;;;;;;;19.98;15.70;;;;;;;;;;12666193;23;20021;-82
2022/12/17 18:18:54;;;;;;;;;;;;;;;;;;12690822;23;19998;-82
2022/12/17 18:24:00;;;;;;;19.75;16.23;;;;;;;;;;12689338;23;19909;-81
2022/12/17 18:29:01;;;;;;;23.77;17.92;;;;;;;;;;12690076;23;20077;-81
2022/12/17 18:34:03;;;;;;;23.35;18.45;;;;;;;;;;12664007;23;20013;-82
2022/12/17 18:39:12;;;;;;;23.63;18.48;;;;;;;;;;12662999;23;20053;-82
2022/12/17 18:44:14;;;;;;;33.15;22.98;;;;;;;;;;12664599;23;20002;-82
2022/12/17 18:49:16;;;;;;;23.33;18.30;;;;;;;;;;12664176;23;20046;-82
2022/12/17 18:54:19;;;;;;;20.00;15.90;;;;;;;;;;12663213;23;20065;-82
2022/12/17 18:59:21;;;;;;;24.17;18.98;;;;;;;;;;12662710;23;20033;-82
2022/12/17 19:04:23;;;;;;;24.40;18.27;;;;;;;;;;12688851;23;20031;-83
2022/12/17 19:09:26;;;;;;;23.25;17.77;;;;;;;;;;12666225;23;20002;-80
2022/12/17 19:14:27;;;;;;;23.40;19.20;;;;;;;;;;12683284;23;20006;-79
2022/12/17 19:19:29;;;;;;;28.77;21.67;;;;;;;;;;12689468;23;20058;-82
2022/12/17 19:24:30;;;;;;;22.58;17.80;;;;;;;;;;12661273;23;20431;-81
2022/12/17 19:29:31;;;;;;;28.33;20.75;;;;;;;;;;12688074;23;20010;-81
2022/12/17 19:34:33;;;;;;;22.40;17.70;;;;;;;;;;12663571;23;20037;-81
2022/12/17 19:39:34;;;;;;;30.60;22.83;;;;;;;;;;12663617;23;20096;-82
2022/12/17 19:44:35;;;;;;;22.92;17.95;;;;;;;;;;12662759;23;20013;-82
2022/12/17 19:49:36;;;;;;;27.33;20.80;;;;;;;;;;12664448;23;20010;-82
2022/12/17 19:54:37;;;;;;;23.83;18.13;;;;;;;;;;12663684;23;20013;-82
2022/12/17 19:59:38;;;;;;;27.88;19.67;;;;;;;;;;12662806;23;20054;-82
2022/12/17 20:04:39;;;;;;;26.42;19.38;;;;;;;;;;12671369;23;20316;-81
2022/12/17 20:09:43;;;;;;;23.17;17.45;;;;;;;;;;12684305;23;20005;-81
2022/12/17 20:14:44;;;;;;;26.80;19.50;;;;;;;;;;12695294;23;20501;-81
2022/12/17 20:19:45;;;;;;;24.23;18.00;;;;;;;;;;12672757;23;20025;-80
